Hermana — ICOF — position and weather

sailwx.info

Track history (hours):
 
Tides and Currents Weather Stations Pressure Air Temp Water Temp Dewpoint Dewpoint Depression Visibility Wind Speed Wind Dir Waves Ship Positions

Hermana

Last reported at 2018-Feb-23 16:30 UTC. Time now 2018-Feb-23 16:58 UTC.
Position N 45°34' E 013°42'.

Length 140 m; draft 5.6 m.

Type: Cargo ship. MMSI: 247293700.

Date/timePositionNaut miles runAvg speedWind from/ knotsBaromVisibWave heightAir tempDewpointWater temp
2018-Feb-23 16:30N 45°34' E 013°42'0 0.0
2018-Feb-23 16:00N 45°34' E 013°42'0 0.0
2018-Feb-23 15:30N 45°34' E 013°42'0 0.0
2018-Feb-23 15:00N 45°34' E 013°42'0 0.0
2018-Feb-23 14:24N 45°34' E 013°42'0 0.0
2018-Feb-23 13:57N 45°34' E 013°42'0 0.1
2018-Feb-23 13:30N 45°34' E 013°42'0 0.0
2018-Feb-23 13:00N 45°34' E 013°42'0 0.0
2018-Feb-23 12:30N 45°34' E 013°42'0 0.0
2018-Feb-23 11:45N 45°34' E 013°42'0 0.0
2018-Feb-23 11:30N 45°34' E 013°42'0 0.0
2018-Feb-23 11:00N 45°34' E 013°42'1 1.2
2018-Feb-23 10:31N 45°34' E 013°41'5 9.9
2018-Feb-23 10:01N 45°35' E 013°34'5 9.8
2018-Feb-23 09:30N 45°33' E 013°27'510.2
2018-Feb-23 09:01N 45°30' E 013°22'611.0
2018-Feb-23 08:30N 45°24' E 013°22'611.5
2018-Feb-23 08:01N 45°18' E 013°22'611.6
2018-Feb-23 07:31N 45°13' E 013°22'611.5
2018-Feb-23 07:01N 45°07' E 013°24'611.5
2018-Feb-23 06:31N 45°02' E 013°27'611.3
2018-Feb-23 06:00N 44°57' E 013°31'611.4
2018-Feb-23 05:30N 44°53' E 013°36'611.6
2018-Feb-23 05:01N 44°49' E 013°43'1310.9
2018-Feb-23 03:49N 44°40' E 013°55'511.5
2018-Feb-23 03:23N 44°36' E 014°01'511.4
2018-Feb-23 02:59N 44°33' E 014°05'34311.7
2018-Feb-21 21:35N 39°57' E 018°41'112.3
2018-Feb-21 21:30N 39°56' E 018°41'612.3
2018-Feb-21 21:01N 39°51' E 018°38'17511.5
2018-Feb-21 05:46N 37°53' E 015°51'511.8
2018-Feb-21 05:22N 37°53' E 015°45'511.7
2018-Feb-21 04:58N 37°56' E 015°40'710.5
2018-Feb-21 04:17N 38°01' E 015°35'311.5
2018-Feb-21 04:00N 38°05' E 015°35'611.3
2018-Feb-21 03:30N 38°10' E 015°35'810.3
2018-Feb-21 02:45N 38°17' E 015°40'311.1
2018-Feb-21 02:30N 38°20' E 015°39'611.2
2018-Feb-21 02:00N 38°25' E 015°37'611.8
2018-Feb-21 01:29N 38°30' E 015°33'611.8
2018-Feb-21 00:57N 38°36' E 015°30'35610.2
2018-Feb-19 14:03N 43°05' E 010°21'211.7
2018-Feb-19 13:54N 43°07' E 010°20'511.5
2018-Feb-19 13:31N 43°11' E 010°17'611.7
2018-Feb-19 13:01N 43°16' E 010°13'611.6
2018-Feb-19 12:30N 43°21' E 010°09'611.6
2018-Feb-19 12:01N 43°26' E 010°05'611.2
2018-Feb-19 11:31N 43°30' E 009°60'611.3
2018-Feb-19 11:00N 43°33' E 009°53'611.4
2018-Feb-19 10:30N 43°37' E 009°49'611.4
2018-Feb-19 10:01N 43°42' E 009°44'611.6
2018-Feb-19 09:31N 43°46' E 009°38'611.6
2018-Feb-19 09:01N 43°50' E 009°33'611.3
2018-Feb-19 08:31N 43°54' E 009°27'611.3
2018-Feb-19 08:01N 43°59' E 009°22'611.4
2018-Feb-19 07:31N 44°03' E 009°17'611.4
2018-Feb-19 07:00N 44°08' E 009°12'511.3
2018-Feb-19 06:31N 44°12' E 009°07'611.3
2018-Feb-19 06:01N 44°16' E 009°01'611.2
2018-Feb-19 05:31N 44°20' E 008°57'510.0
2018-Feb-19 05:00N 44°24' E 008°52'0 0.5
2018-Feb-19 04:24N 44°24' E 008°52'0 0.0
2018-Feb-19 03:57N 44°24' E 008°52'0 0.0
2018-Feb-19 03:30N 44°24' E 008°52'0 0.0
2018-Feb-19 03:00N 44°24' E 008°52'0 0.0
2018-Feb-19 02:30N 44°24' E 008°52'0 0.0
2018-Feb-19 02:00N 44°24' E 008°52'0 0.0
2018-Feb-19 01:30N 44°24' E 008°52'0 0.0
2018-Feb-19 01:00N 44°24' E 008°52'0 0.0
2018-Feb-19 00:30N 44°24' E 008°52'0 0.0
2018-Feb-19 00:00N 44°24' E 008°52'0 0.0
2018-Feb-18 23:30N 44°24' E 008°52'0 0.0
2018-Feb-18 23:00N 44°24' E 008°52'0 0.0
2018-Feb-18 22:30N 44°24' E 008°52'0 0.0
2018-Feb-18 22:00N 44°24' E 008°52'0 0.0
2018-Feb-18 21:30N 44°24' E 008°52'0 0.0
2018-Feb-18 21:00N 44°24' E 008°52'0 0.0
2018-Feb-18 20:30N 44°24' E 008°52'0 0.0
2018-Feb-18 20:00N 44°24' E 008°52'0 0.0
2018-Feb-18 19:30N 44°24' E 008°52'0 0.0
2018-Feb-18 19:00N 44°24' E 008°52'0 0.0
2018-Feb-18 18:30N 44°24' E 008°52'0 0.0
2018-Feb-18 18:00N 44°24' E 008°52'0 0.0
2018-Feb-18 17:27N 44°24' E 008°52'0 0.0
2018-Feb-18 16:51N 44°24' E 008°52'0 0.0
2018-Feb-18 16:27N 44°24' E 008°52'0 0.0
2018-Feb-18 15:54N 44°24' E 008°52'0 0.0
2018-Feb-18 15:30N 44°24' E 008°52'0 0.0
2018-Feb-18 14:57N 44°24' E 008°52'0 0.0
2018-Feb-18 14:30N 44°24' E 008°52'0 0.0
2018-Feb-18 13:57N 44°24' E 008°52'0 0.0
2018-Feb-18 13:27N 44°24' E 008°52'0 0.0
2018-Feb-18 13:00N 44°24' E 008°52'0 0.0
2018-Feb-18 12:27N 44°24' E 008°52'0 0.0
2018-Feb-18 12:00N 44°24' E 008°52'0 0.0
2018-Feb-18 11:27N 44°24' E 008°52'0 0.0
2018-Feb-18 11:00N 44°24' E 008°52'0 0.0
2018-Feb-18 10:30N 44°24' E 008°52'0 0.0
2018-Feb-18 10:00N 44°24' E 008°52'0 0.0
2018-Feb-18 09:30N 44°24' E 008°52'0 0.0
2018-Feb-18 09:00N 44°24' E 008°52'0 0.0
2018-Feb-18 08:30N 44°24' E 008°52'0 0.0
2018-Feb-18 08:00N 44°24' E 008°52'0 0.0
2018-Feb-18 07:30N 44°24' E 008°52'0 0.0
2018-Feb-18 07:00N 44°24' E 008°52'0 0.0
2018-Feb-18 06:27N 44°24' E 008°52'0 0.0
2018-Feb-18 06:00N 44°24' E 008°52'0 0.0
2018-Feb-18 05:30N 44°24' E 008°52'0 0.0
2018-Feb-18 05:00N 44°24' E 008°52'0 0.0
2018-Feb-18 04:30N 44°24' E 008°52'0 0.0
2018-Feb-18 04:00N 44°24' E 008°52'0 0.0
2018-Feb-18 03:30N 44°24' E 008°52'0 0.0
2018-Feb-18 02:57N 44°24' E 008°52'0 0.0
2018-Feb-18 02:30N 44°24' E 008°52'0 0.0
2018-Feb-18 01:51N 44°24' E 008°52'0 0.0
2018-Feb-18 01:24N 44°24' E 008°52'0 0.0
2018-Feb-18 01:00N 44°24' E 008°52'0 0.0
2018-Feb-18 00:27N 44°24' E 008°52'0 0.0
2018-Feb-18 00:00N 44°24' E 008°52'0 0.0
2018-Feb-17 23:27N 44°24' E 008°52'0 0.0
2018-Feb-17 22:54N 44°24' E 008°52'0 0.0
2018-Feb-17 22:27N 44°24' E 008°52'0 0.0
2018-Feb-17 21:57N 44°24' E 008°52'0 0.0
2018-Feb-17 21:27N 44°24' E 008°52'0 0.0
2018-Feb-17 20:57N 44°24' E 008°52'0 0.0
2018-Feb-17 20:30N 44°24' E 008°52'0 0.0
2018-Feb-17 19:57N 44°24' E 008°52'0 0.0
2018-Feb-17 19:30N 44°24' E 008°52'0 0.0
2018-Feb-17 19:00N 44°24' E 008°52'0 0.0
2018-Feb-17 18:30N 44°24' E 008°52'0 0.0
2018-Feb-17 18:00N 44°24' E 008°52'0 0.0
2018-Feb-17 17:30N 44°24' E 008°52'0 0.0
2018-Feb-17 17:00N 44°24' E 008°52'0 0.0
2018-Feb-17 16:30N 44°24' E 008°52'0 0.0
2018-Feb-17 16:00N 44°24' E 008°52'2 3.2
2018-Feb-17 15:30N 44°24' E 008°54'3 6.8
2018-Feb-17 15:00N 44°22' E 008°58'3 6.2
2018-Feb-17 14:30N 44°19' E 009°00'611.2
2018-Feb-17 14:00N 44°15' E 009°05'611.4
2018-Feb-17 13:30N 44°10' E 009°10'611.5
2018-Feb-17 13:00N 44°06' E 009°15'611.3
2018-Feb-17 12:30N 44°02' E 009°20'510.9
2018-Feb-17 12:00N 43°57' E 009°25'510.9
2018-Feb-17 11:30N 43°53' E 009°29'510.9
2018-Feb-17 11:00N 43°49' E 009°34'611.6
2018-Feb-17 10:30N 43°44' E 009°40'611.0
2018-Feb-17 10:00N 43°40' E 009°45'510.9
2018-Feb-17 09:30N 43°36' E 009°49'510.8
2018-Feb-17 09:00N 43°32' E 009°55'510.9
2018-Feb-17 08:30N 43°29' E 010°01'510.9
2018-Feb-17 08:00N 43°25' E 010°06'511.0
2018-Feb-17 07:30N 43°20' E 010°09'611.0
2018-Feb-17 07:00N 43°15' E 010°13'35610.0
2018-Feb-15 19:17N 38°42' E 015°15'3 9.7
2018-Feb-15 18:57N 38°39' E 015°18'5 9.5
2018-Feb-15 18:25N 38°36' E 015°23'4 9.1
2018-Feb-15 18:00N 38°34' E 015°27'5 8.8
2018-Feb-15 17:28N 38°30' E 015°31'4 9.1
2018-Feb-15 17:00N 38°27' E 015°34'5 9.0
2018-Feb-15 16:29N 38°23' E 015°37'4 9.0
2018-Feb-15 16:00N 38°19' E 015°40'5 8.0
2018-Feb-15 15:20N 38°14' E 015°38'3 9.7
2018-Feb-15 15:00N 38°11' E 015°37'4 8.4
2018-Feb-15 14:30N 38°07' E 015°37'5 8.7
2018-Feb-15 13:57N 38°02' E 015°37'5 8.6
2018-Feb-15 13:19N 37°57' E 015°39'3 8.3
2018-Feb-15 13:00N 37°55' E 015°42'5 9.2
2018-Feb-15 12:30N 37°54' E 015°47'109 8.5
2018-Feb-14 23:38N 39°19' E 017°15'510.6
2018-Feb-14 23:12N 39°23' E 017°14'310.6
2018-Feb-14 22:55N 39°26' E 017°14'510.3
2018-Feb-14 22:29N 39°31' E 017°13'510.7
2018-Feb-14 21:59N 39°36' E 017°13'1210.7
2018-Feb-14 20:52N 39°48' E 017°12'410.3
2018-Feb-14 20:28N 39°52' E 017°11'510.3
2018-Feb-14 19:58N 39°57' E 017°11'510.3
2018-Feb-14 19:30N 40°02' E 017°10'510.2
2018-Feb-14 18:59N 40°07' E 017°10'510.1
2018-Feb-14 18:30N 40°12' E 017°09'510.0
2018-Feb-14 18:00N 40°17' E 017°09'5 9.9
2018-Feb-14 17:30N 40°22' E 017°08'4 8.4
2018-Feb-14 17:00N 40°26' E 017°10'3 6.1
2018-Feb-14 16:27N 40°29' E 017°13'0 0.0
2018-Feb-14 15:57N 40°29' E 017°13'0 0.0
2018-Feb-14 15:27N 40°29' E 017°13'0 0.0
2018-Feb-14 14:57N 40°29' E 017°13'0 0.0
2018-Feb-14 14:27N 40°29' E 017°13'0 0.0
2018-Feb-14 13:57N 40°29' E 017°13'0 0.0
2018-Feb-14 13:27N 40°29' E 017°13'0 0.0
2018-Feb-14 12:51N 40°29' E 017°13'0 0.0
2018-Feb-14 12:27N 40°29' E 017°13'0 0.0
2018-Feb-14 11:57N 40°29' E 017°13'0 0.0
2018-Feb-14 11:27N 40°29' E 017°13'0 0.0
2018-Feb-14 10:57N 40°29' E 017°13'0 0.0
2018-Feb-14 10:27N 40°29' E 017°13'0 0.0
2018-Feb-14 09:57N 40°29' E 017°13'0 0.0
2018-Feb-14 09:27N 40°29' E 017°13'0 0.0
2018-Feb-14 08:57N 40°29' E 017°13'0 0.0
2018-Feb-14 08:27N 40°29' E 017°13'0 0.0
2018-Feb-14 07:57N 40°29' E 017°13'0 0.0
2018-Feb-14 07:30N 40°29' E 017°13'0 0.0
2018-Feb-14 07:00N 40°29' E 017°13'0 0.0
2018-Feb-14 06:30N 40°29' E 017°13'0 0.0
2018-Feb-14 06:00N 40°29' E 017°13'0 0.0
2018-Feb-14 05:27N 40°29' E 017°13'0 0.0
2018-Feb-14 04:57N 40°29' E 017°13'0 0.0
2018-Feb-14 04:27N 40°29' E 017°13'0 0.0
2018-Feb-14 03:57N 40°29' E 017°13'0 0.0
2018-Feb-14 03:27N 40°29' E 017°13'0 0.0
2018-Feb-14 03:00N 40°29' E 017°13'0 0.0
2018-Feb-14 02:30N 40°29' E 017°13'0 0.0
2018-Feb-14 02:00N 40°29' E 017°13'0 0.0
2018-Feb-14 01:27N 40°29' E 017°13'0 0.0
2018-Feb-14 01:00N 40°29' E 017°13'0 0.0
2018-Feb-14 00:30N 40°29' E 017°13'0 0.0
2018-Feb-13 23:57N 40°29' E 017°13'0 0.0
2018-Feb-13 23:27N 40°29' E 017°13'0 0.0
2018-Feb-13 22:57N 40°29' E 017°13'0 0.0
2018-Feb-13 22:27N 40°29' E 017°13'0 0.0
2018-Feb-13 22:00N 40°29' E 017°13'0 0.0
2018-Feb-13 21:27N 40°29' E 017°13'0 0.0
2018-Feb-13 21:00N 40°29' E 017°13'0 0.0
2018-Feb-13 20:27N 40°29' E 017°13'0 0.0
2018-Feb-13 20:00N 40°29' E 017°13'0 0.0
2018-Feb-13 19:30N 40°29' E 017°13'0 0.0
2018-Feb-13 19:00N 40°29' E 017°13'0 0.0
2018-Feb-13 18:27N 40°29' E 017°13'0 0.0
2018-Feb-13 17:57N 40°29' E 017°13'0 0.0
2018-Feb-13 17:27N 40°29' E 017°13'0 0.0
2018-Feb-13 16:57N 40°29' E 017°13'  
Track history (hours):
 
Tides and Currents Weather Stations Pressure Air Temp Water Temp Dewpoint Dewpoint Depression Visibility Wind Speed Wind Dir Waves Ship Positions

Hermana

Last reported at 2018-Feb-23 16:30 UTC. Time now 2018-Feb-23 16:58 UTC.
Position N 45°34' E 013°42'.

Length 140 m; draft 5.6 m.

Type: Cargo ship. MMSI: 247293700.

Date/timePositionNaut miles runAvg speedWind from/ knotsBaromVisibWave heightAir tempDewpointWater temp
2018-Feb-23 16:30N 45°34' E 013°42'0 0.0
2018-Feb-23 16:00N 45°34' E 013°42'0 0.0
2018-Feb-23 15:30N 45°34' E 013°42'0 0.0
2018-Feb-23 15:00N 45°34' E 013°42'0 0.0
2018-Feb-23 14:24N 45°34' E 013°42'0 0.0
2018-Feb-23 13:57N 45°34' E 013°42'0 0.1
2018-Feb-23 13:30N 45°34' E 013°42'0 0.0
2018-Feb-23 13:00N 45°34' E 013°42'0 0.0
2018-Feb-23 12:30N 45°34' E 013°42'0 0.0
2018-Feb-23 11:45N 45°34' E 013°42'0 0.0
2018-Feb-23 11:30N 45°34' E 013°42'0 0.0
2018-Feb-23 11:00N 45°34' E 013°42'1 1.2
2018-Feb-23 10:31N 45°34' E 013°41'5 9.9
2018-Feb-23 10:01N 45°35' E 013°34'5 9.8
2018-Feb-23 09:30N 45°33' E 013°27'510.2
2018-Feb-23 09:01N 45°30' E 013°22'611.0
2018-Feb-23 08:30N 45°24' E 013°22'611.5
2018-Feb-23 08:01N 45°18' E 013°22'611.6
2018-Feb-23 07:31N 45°13' E 013°22'611.5
2018-Feb-23 07:01N 45°07' E 013°24'611.5
2018-Feb-23 06:31N 45°02' E 013°27'611.3
2018-Feb-23 06:00N 44°57' E 013°31'611.4
2018-Feb-23 05:30N 44°53' E 013°36'611.6
2018-Feb-23 05:01N 44°49' E 013°43'1310.9
2018-Feb-23 03:49N 44°40' E 013°55'511.5
2018-Feb-23 03:23N 44°36' E 014°01'511.4
2018-Feb-23 02:59N 44°33' E 014°05'34311.7
2018-Feb-21 21:35N 39°57' E 018°41'112.3
2018-Feb-21 21:30N 39°56' E 018°41'612.3
2018-Feb-21 21:01N 39°51' E 018°38'17511.5
2018-Feb-21 05:46N 37°53' E 015°51'511.8
2018-Feb-21 05:22N 37°53' E 015°45'511.7
2018-Feb-21 04:58N 37°56' E 015°40'710.5
2018-Feb-21 04:17N 38°01' E 015°35'311.5
2018-Feb-21 04:00N 38°05' E 015°35'611.3
2018-Feb-21 03:30N 38°10' E 015°35'810.3
2018-Feb-21 02:45N 38°17' E 015°40'311.1
2018-Feb-21 02:30N 38°20' E 015°39'611.2
2018-Feb-21 02:00N 38°25' E 015°37'611.8
2018-Feb-21 01:29N 38°30' E 015°33'611.8
2018-Feb-21 00:57N 38°36' E 015°30'35610.2
2018-Feb-19 14:03N 43°05' E 010°21'211.7
2018-Feb-19 13:54N 43°07' E 010°20'511.5
2018-Feb-19 13:31N 43°11' E 010°17'611.7
2018-Feb-19 13:01N 43°16' E 010°13'611.6
2018-Feb-19 12:30N 43°21' E 010°09'611.6
2018-Feb-19 12:01N 43°26' E 010°05'611.2
2018-Feb-19 11:31N 43°30' E 009°60'611.3
2018-Feb-19 11:00N 43°33' E 009°53'611.4
2018-Feb-19 10:30N 43°37' E 009°49'611.4
2018-Feb-19 10:01N 43°42' E 009°44'611.6
2018-Feb-19 09:31N 43°46' E 009°38'611.6
2018-Feb-19 09:01N 43°50' E 009°33'611.3
2018-Feb-19 08:31N 43°54' E 009°27'611.3
2018-Feb-19 08:01N 43°59' E 009°22'611.4
2018-Feb-19 07:31N 44°03' E 009°17'611.4
2018-Feb-19 07:00N 44°08' E 009°12'511.3
2018-Feb-19 06:31N 44°12' E 009°07'611.3
2018-Feb-19 06:01N 44°16' E 009°01'611.2
2018-Feb-19 05:31N 44°20' E 008°57'510.0
2018-Feb-19 05:00N 44°24' E 008°52'0 0.5
2018-Feb-19 04:24N 44°24' E 008°52'0 0.0
2018-Feb-19 03:57N 44°24' E 008°52'0 0.0
2018-Feb-19 03:30N 44°24' E 008°52'0 0.0
2018-Feb-19 03:00N 44°24' E 008°52'0 0.0
2018-Feb-19 02:30N 44°24' E 008°52'0 0.0
2018-Feb-19 02:00N 44°24' E 008°52'0 0.0
2018-Feb-19 01:30N 44°24' E 008°52'0 0.0
2018-Feb-19 01:00N 44°24' E 008°52'0 0.0
2018-Feb-19 00:30N 44°24' E 008°52'0 0.0
2018-Feb-19 00:00N 44°24' E 008°52'0 0.0
2018-Feb-18 23:30N 44°24' E 008°52'0 0.0
2018-Feb-18 23:00N 44°24' E 008°52'0 0.0
2018-Feb-18 22:30N 44°24' E 008°52'0 0.0
2018-Feb-18 22:00N 44°24' E 008°52'0 0.0
2018-Feb-18 21:30N 44°24' E 008°52'0 0.0
2018-Feb-18 21:00N 44°24' E 008°52'0 0.0
2018-Feb-18 20:30N 44°24' E 008°52'0 0.0
2018-Feb-18 20:00N 44°24' E 008°52'0 0.0
2018-Feb-18 19:30N 44°24' E 008°52'0 0.0
2018-Feb-18 19:00N 44°24' E 008°52'0 0.0
2018-Feb-18 18:30N 44°24' E 008°52'0 0.0
2018-Feb-18 18:00N 44°24' E 008°52'0 0.0
2018-Feb-18 17:27N 44°24' E 008°52'0 0.0
2018-Feb-18 16:51N 44°24' E 008°52'0 0.0
2018-Feb-18 16:27N 44°24' E 008°52'0 0.0
2018-Feb-18 15:54N 44°24' E 008°52'0 0.0
2018-Feb-18 15:30N 44°24' E 008°52'0 0.0
2018-Feb-18 14:57N 44°24' E 008°52'0 0.0
2018-Feb-18 14:30N 44°24' E 008°52'0 0.0
2018-Feb-18 13:57N 44°24' E 008°52'0 0.0
2018-Feb-18 13:27N 44°24' E 008°52'0 0.0
2018-Feb-18 13:00N 44°24' E 008°52'0 0.0
2018-Feb-18 12:27N 44°24' E 008°52'0 0.0
2018-Feb-18 12:00N 44°24' E 008°52'0 0.0
2018-Feb-18 11:27N 44°24' E 008°52'0 0.0
2018-Feb-18 11:00N 44°24' E 008°52'0 0.0
2018-Feb-18 10:30N 44°24' E 008°52'0 0.0
2018-Feb-18 10:00N 44°24' E 008°52'0 0.0
2018-Feb-18 09:30N 44°24' E 008°52'0 0.0
2018-Feb-18 09:00N 44°24' E 008°52'0 0.0
2018-Feb-18 08:30N 44°24' E 008°52'0 0.0
2018-Feb-18 08:00N 44°24' E 008°52'0 0.0
2018-Feb-18 07:30N 44°24' E 008°52'0 0.0
2018-Feb-18 07:00N 44°24' E 008°52'0 0.0
2018-Feb-18 06:27N 44°24' E 008°52'0 0.0
2018-Feb-18 06:00N 44°24' E 008°52'0 0.0
2018-Feb-18 05:30N 44°24' E 008°52'0 0.0
2018-Feb-18 05:00N 44°24' E 008°52'0 0.0
2018-Feb-18 04:30N 44°24' E 008°52'0 0.0
2018-Feb-18 04:00N 44°24' E 008°52'0 0.0
2018-Feb-18 03:30N 44°24' E 008°52'0 0.0
2018-Feb-18 02:57N 44°24' E 008°52'0 0.0
2018-Feb-18 02:30N 44°24' E 008°52'0 0.0
2018-Feb-18 01:51N 44°24' E 008°52'0 0.0
2018-Feb-18 01:24N 44°24' E 008°52'0 0.0
2018-Feb-18 01:00N 44°24' E 008°52'0 0.0
2018-Feb-18 00:27N 44°24' E 008°52'0 0.0
2018-Feb-18 00:00N 44°24' E 008°52'0 0.0
2018-Feb-17 23:27N 44°24' E 008°52'0 0.0
2018-Feb-17 22:54N 44°24' E 008°52'0 0.0
2018-Feb-17 22:27N 44°24' E 008°52'0 0.0
2018-Feb-17 21:57N 44°24' E 008°52'0 0.0
2018-Feb-17 21:27N 44°24' E 008°52'0 0.0
2018-Feb-17 20:57N 44°24' E 008°52'0 0.0
2018-Feb-17 20:30N 44°24' E 008°52'0 0.0
2018-Feb-17 19:57N 44°24' E 008°52'0 0.0
2018-Feb-17 19:30N 44°24' E 008°52'0 0.0
2018-Feb-17 19:00N 44°24' E 008°52'0 0.0
2018-Feb-17 18:30N 44°24' E 008°52'0 0.0
2018-Feb-17 18:00N 44°24' E 008°52'0 0.0
2018-Feb-17 17:30N 44°24' E 008°52'0 0.0
2018-Feb-17 17:00N 44°24' E 008°52'0 0.0
2018-Feb-17 16:30N 44°24' E 008°52'0 0.0
2018-Feb-17 16:00N 44°24' E 008°52'2 3.2
2018-Feb-17 15:30N 44°24' E 008°54'3 6.8
2018-Feb-17 15:00N 44°22' E 008°58'3 6.2
2018-Feb-17 14:30N 44°19' E 009°00'611.2
2018-Feb-17 14:00N 44°15' E 009°05'611.4
2018-Feb-17 13:30N 44°10' E 009°10'611.5
2018-Feb-17 13:00N 44°06' E 009°15'611.3
2018-Feb-17 12:30N 44°02' E 009°20'510.9
2018-Feb-17 12:00N 43°57' E 009°25'510.9
2018-Feb-17 11:30N 43°53' E 009°29'510.9
2018-Feb-17 11:00N 43°49' E 009°34'611.6
2018-Feb-17 10:30N 43°44' E 009°40'611.0
2018-Feb-17 10:00N 43°40' E 009°45'510.9
2018-Feb-17 09:30N 43°36' E 009°49'510.8
2018-Feb-17 09:00N 43°32' E 009°55'510.9
2018-Feb-17 08:30N 43°29' E 010°01'510.9
2018-Feb-17 08:00N 43°25' E 010°06'511.0
2018-Feb-17 07:30N 43°20' E 010°09'611.0
2018-Feb-17 07:00N 43°15' E 010°13'35610.0
2018-Feb-15 19:17N 38°42' E 015°15'3 9.7
2018-Feb-15 18:57N 38°39' E 015°18'5 9.5
2018-Feb-15 18:25N 38°36' E 015°23'4 9.1
2018-Feb-15 18:00N 38°34' E 015°27'5 8.8
2018-Feb-15 17:28N 38°30' E 015°31'4 9.1
2018-Feb-15 17:00N 38°27' E 015°34'5 9.0
2018-Feb-15 16:29N 38°23' E 015°37'4 9.0
2018-Feb-15 16:00N 38°19' E 015°40'5 8.0
2018-Feb-15 15:20N 38°14' E 015°38'3 9.7
2018-Feb-15 15:00N 38°11' E 015°37'4 8.4
2018-Feb-15 14:30N 38°07' E 015°37'5 8.7
2018-Feb-15 13:57N 38°02' E 015°37'5 8.6
2018-Feb-15 13:19N 37°57' E 015°39'3 8.3
2018-Feb-15 13:00N 37°55' E 015°42'5 9.2
2018-Feb-15 12:30N 37°54' E 015°47'109 8.5
2018-Feb-14 23:38N 39°19' E 017°15'510.6
2018-Feb-14 23:12N 39°23' E 017°14'310.6
2018-Feb-14 22:55N 39°26' E 017°14'510.3
2018-Feb-14 22:29N 39°31' E 017°13'510.7
2018-Feb-14 21:59N 39°36' E 017°13'1210.7
2018-Feb-14 20:52N 39°48' E 017°12'410.3
2018-Feb-14 20:28N 39°52' E 017°11'510.3
2018-Feb-14 19:58N 39°57' E 017°11'510.3
2018-Feb-14 19:30N 40°02' E 017°10'510.2
2018-Feb-14 18:59N 40°07' E 017°10'510.1
2018-Feb-14 18:30N 40°12' E 017°09'510.0
2018-Feb-14 18:00N 40°17' E 017°09'5 9.9
2018-Feb-14 17:30N 40°22' E 017°08'4 8.4
2018-Feb-14 17:00N 40°26' E 017°10'3 6.1
2018-Feb-14 16:27N 40°29' E 017°13'0 0.0
2018-Feb-14 15:57N 40°29' E 017°13'0 0.0
2018-Feb-14 15:27N 40°29' E 017°13'0 0.0
2018-Feb-14 14:57N 40°29' E 017°13'0 0.0
2018-Feb-14 14:27N 40°29' E 017°13'0 0.0
2018-Feb-14 13:57N 40°29' E 017°13'0 0.0
2018-Feb-14 13:27N 40°29' E 017°13'0 0.0
2018-Feb-14 12:51N 40°29' E 017°13'0 0.0
2018-Feb-14 12:27N 40°29' E 017°13'0 0.0
2018-Feb-14 11:57N 40°29' E 017°13'0 0.0
2018-Feb-14 11:27N 40°29' E 017°13'0 0.0
2018-Feb-14 10:57N 40°29' E 017°13'0 0.0
2018-Feb-14 10:27N 40°29' E 017°13'0 0.0
2018-Feb-14 09:57N 40°29' E 017°13'0 0.0
2018-Feb-14 09:27N 40°29' E 017°13'0 0.0
2018-Feb-14 08:57N 40°29' E 017°13'0 0.0
2018-Feb-14 08:27N 40°29' E 017°13'0 0.0
2018-Feb-14 07:57N 40°29' E 017°13'0 0.0
2018-Feb-14 07:30N 40°29' E 017°13'0 0.0
2018-Feb-14 07:00N 40°29' E 017°13'0 0.0
2018-Feb-14 06:30N 40°29' E 017°13'0 0.0
2018-Feb-14 06:00N 40°29' E 017°13'0 0.0
2018-Feb-14 05:27N 40°29' E 017°13'0 0.0
2018-Feb-14 04:57N 40°29' E 017°13'0 0.0
2018-Feb-14 04:27N 40°29' E 017°13'0 0.0
2018-Feb-14 03:57N 40°29' E 017°13'0 0.0
2018-Feb-14 03:27N 40°29' E 017°13'0 0.0
2018-Feb-14 03:00N 40°29' E 017°13'0 0.0
2018-Feb-14 02:30N 40°29' E 017°13'0 0.0
2018-Feb-14 02:00N 40°29' E 017°13'0 0.0
2018-Feb-14 01:27N 40°29' E 017°13'0 0.0
2018-Feb-14 01:00N 40°29' E 017°13'0 0.0
2018-Feb-14 00:30N 40°29' E 017°13'0 0.0
2018-Feb-13 23:57N 40°29' E 017°13'0 0.0
2018-Feb-13 23:27N 40°29' E 017°13'0 0.0
2018-Feb-13 22:57N 40°29' E 017°13'0 0.0
2018-Feb-13 22:27N 40°29' E 017°13'0 0.0
2018-Feb-13 22:00N 40°29' E 017°13'0 0.0
2018-Feb-13 21:27N 40°29' E 017°13'0 0.0
2018-Feb-13 21:00N 40°29' E 017°13'0 0.0
2018-Feb-13 20:27N 40°29' E 017°13'0 0.0
2018-Feb-13 20:00N 40°29' E 017°13'0 0.0
2018-Feb-13 19:30N 40°29' E 017°13'0 0.0
2018-Feb-13 19:00N 40°29' E 017°13'0 0.0
2018-Feb-13 18:27N 40°29' E 017°13'0 0.0
2018-Feb-13 17:57N 40°29' E 017°13'0 0.0
2018-Feb-13 17:27N 40°29' E 017°13'0 0.0
2018-Feb-13 16:57N 40°29' E 017°13'  

Dump ship's entire track history